WetterOnline ( https://www.wetteronline.de )

Wetter aktuell Braunschweig

Aktuelles Wetter: Braunschweig/Flughafen (88m)

6-stündlich | Neueste Meldungen
Ortszeit Temperatur Wetter
Mi, 21.08. 2:00 15.1° C bedeckt
Di, 20.08. 20:00 18.6° C bedeckt
Di, 20.08. 14:00 20.6° C wolkig
Di, 20.08. 8:00 14.2° C fast wolkenlos
Di, 20.08. 2:00 13.8° C leicht bewölkt
Mo, 19.08. 20:00 20.4° C leicht bewölkt
Mo, 19.08. 14:00 20.7° C wolkig
Mo, 19.08. 8:00 16.4° C wolkig
Ortszeit Temperatur Wetter
Mi, 21.08. 2:30 14.9° C bedeckt
Mi, 21.08. 2:20 14.9° C bedeckt
Mi, 21.08. 2:10 15.0° C bedeckt
Mi, 21.08. 2:00 15.1° C bedeckt
Mi, 21.08. 1:40 14.9° C bedeckt
Mi, 21.08. 1:30 15.6° C bewölkt
Mi, 21.08. 1:00 16.2° C wolkig
Mi, 21.08. 0:30 15.9° C wolkig
Mi, 21.08. 0:00 15.8° C wolkig
Di, 20.08. 23:30 16.2° C wolkig
Ortszeit Relative Feuchte Sichtweite
Mi, 21.08. 2:00 77% 40 km
Di, 20.08. 20:00 59% 60 km
Di, 20.08. 14:00 42% 65 km
Di, 20.08. 8:00 76% 30 km
Di, 20.08. 2:00 79% 45 km
Mo, 19.08. 20:00 48% 70 km
Mo, 19.08. 14:00 50% 26 km
Mo, 19.08. 8:00 82% 24 km
Ortszeit Relative Feuchte Sichtweite
Mi, 21.08. 2:30 79% 40 km
Mi, 21.08. 2:20 79% -
Mi, 21.08. 2:10 78% -
Mi, 21.08. 2:00 77% 40 km
Mi, 21.08. 1:40 79% -
Mi, 21.08. 1:30 74% 45 km
Mi, 21.08. 1:00 70% 45 km
Mi, 21.08. 0:30 70% 45 km
Mi, 21.08. 0:00 69% 40 km
Di, 20.08. 23:30 65% 40 km
Ortszeit Niederschlagsmenge Niederschlagsart
Mi, 21.08. 2:00 0.0 l/m2 in 6 Std. -
Di, 20.08. 20:00 0.0 l/m2 in 12 Std. -
Di, 20.08. 14:00 0.0 l/m2 in 6 Std. -
Di, 20.08. 8:00 0.0 l/m2 in 12 Std. -
Di, 20.08. 2:00 0.0 l/m2 in 6 Std. -
Mo, 19.08. 20:00 0.0 l/m2 in 12 Std. -
Mo, 19.08. 14:00 0.0 l/m2 in 6 Std. -
Mo, 19.08. 8:00 0.0 l/m2 in 12 Std. -
Ortszeit Niederschlagsmenge Niederschlagsart
Mi, 21.08. 2:30 0.0 l/m2 in 1 Std. -
Mi, 21.08. 2:20 keine Meldung -
Mi, 21.08. 2:10 keine Meldung -
Mi, 21.08. 2:00 0.0 l/m2 in 1 Std. -
Mi, 21.08. 1:40 keine Meldung -
Mi, 21.08. 1:30 0.0 l/m2 in 1 Std. -
Mi, 21.08. 1:00 0.0 l/m2 in 1 Std. -
Mi, 21.08. 0:30 0.0 l/m2 in 1 Std. -
Mi, 21.08. 0:00 0.0 l/m2 in 1 Std. -
Di, 20.08. 23:30 0.0 l/m2 in 1 Std. -
Ortszeit Stärke Spitze Richtung
km/h Bft. km/h Grad Sektor
Mi, 21.08. 2:00 7 2 25 300° NW
Di, 20.08. 20:00 4 1 22 210° SW
Di, 20.08. 14:00 9 2 26 230° SW
Di, 20.08. 8:00 9 2 17 200° S
Di, 20.08. 2:00 11 2 14 180° S
Mo, 19.08. 20:00 7 2 36 240° SW
Mo, 19.08. 14:00 20 4 43 240° SW
Mo, 19.08. 8:00 9 2 19 210° SW
Ortszeit Stärke Spitze Richtung
km/h Bft. km/h Grad Sektor
Mi, 21.08. 2:30 6 1 9 260° W
Mi, 21.08. 2:20 6 1 - 260° W
Mi, 21.08. 2:10 6 1 - 270° W
Mi, 21.08. 2:00 7 2 18 300° NW
Mi, 21.08. 1:40 11 2 - 330° NW
Mi, 21.08. 1:30 9 2 17 320° NW
Mi, 21.08. 1:00 11 2 25 270° W
Mi, 21.08. 0:30 11 2 24 280° W
Mi, 21.08. 0:00 13 3 20 260° W
Di, 20.08. 23:30 11 2 22 240° SW
Ortszeit Untergrenze Bedeckung Gattung
total tief tief mittel hoch
Mi, 21.08. 2:00 2400 m 8/8 8/8 - - -
Di, 20.08. 20:00 6000 m 8/8 8/8 - - -
Di, 20.08. 14:00 5700 m 8/8 8/8 - - -
Di, 20.08. 8:00 8100 m 1/8 0/8 - - -
Di, 20.08. 2:00 7800 m 4/8 0/8 - - -
Mo, 19.08. 20:00 2400 m 4/8 4/8 - - -
Mo, 19.08. 14:00 1410 m 5/8 5/8 - - -
Mo, 19.08. 8:00 8400 m 8/8 0/8 - - -
Ortszeit Bedeckungsgrad in Achtel und Wolkenuntergrenze
Mi, 21.08. 2:30 8(2700m)
Mi, 21.08. 2:20 8(2700m)
Mi, 21.08. 2:10 8(2700m)
Mi, 21.08. 2:00 8(2400m) 8(3000m)
Mi, 21.08. 1:40 8(2400m)
Mi, 21.08. 1:30 1(1380m) 6(2700m) 8(3300m)
Mi, 21.08. 1:00 3(1500m) 8(3300m) 8(3300m)
Mi, 21.08. 0:30 3(3300m) 8(7800m) 8(7800m)
Mi, 21.08. 0:00 8(7500m) 8(8700m)
Di, 20.08. 23:30 8(7800m)
Ortszeit Luftdruck NN (hPa) Tendenz (hPa in 3 Std.)
Mi, 21.08. 2:00 1026 + 1,4
Di, 20.08. 20:00 1023 + 0,5
Di, 20.08. 14:00 1022 0,0
Di, 20.08. 8:00 1021 + 1,3
Di, 20.08. 2:00 1020 + 1,0
Mo, 19.08. 20:00 1018 + 0,7
Mo, 19.08. 14:00 1016 + 1,0
Mo, 19.08. 8:00 1014 + 1,4
Ortszeit Luftdruck NN (hPa) Tendenz (hPa in 3 Std.)
Mi, 21.08. 2:30 1026 + 1,2
Mi, 21.08. 2:20 1026 keine Meldung
Mi, 21.08. 2:10 1026 keine Meldung
Mi, 21.08. 2:00 1026 + 1,4
Mi, 21.08. 1:40 1026 keine Meldung
Mi, 21.08. 1:30 1025 + 1,2
Mi, 21.08. 1:00 1026 + 1,7
Mi, 21.08. 0:30 1025 + 1,2
Mi, 21.08. 0:00 1025 + 1,3
Di, 20.08. 23:30 1025 + 1,3
Ortszeit Schneehöhe (cm)
Mi, 21.08. 2:00 -
Di, 20.08. 20:00 -
Di, 20.08. 14:00 -
Di, 20.08. 8:00 -
Di, 20.08. 2:00 -
Mo, 19.08. 20:00 -
Mo, 19.08. 14:00 -
Mo, 19.08. 8:00 -
Ortszeit Schneehöhe (cm)
Mi, 21.08. 2:30 -
Mi, 21.08. 2:20 -
Mi, 21.08. 2:10 -
Mi, 21.08. 2:00 -
Mi, 21.08. 1:40 -
Mi, 21.08. 1:30 -
Mi, 21.08. 1:00 -
Mi, 21.08. 0:30 -
Mi, 21.08. 0:00 -
Di, 20.08. 23:30 -
Link zu dieser Seite / Seite empfehlen

Das Wetter in ...